Time;durP1;ratioP1;P1;durP2;ratioP2;P2;SDS_P1;SDS_P2;PMS_P1;PMS_P2;Temp;Humidity;BMP_temperature;BMP_pressure;BME280_temperature;BME280_humidity;BME280_pressure;Samples;Min_cycle;Max_cycle;Signal;HPM_P1;HPM_P2
2023/04/23 00:01:24;;;;;;;;;;;;;;;26.92;40.22;93747.28;4957863;28;7409;-62
2023/04/23 00:04:07;;;;;;;;;;;;;;;26.92;40.28;93740.28;4902241;29;7306;-62
2023/04/23 00:06:35;;;;;;;;;;;;;;;26.93;40.10;93745.25;4879549;29;9211;-63
2023/04/23 00:09:07;;;;;;;;;;;;;;;26.92;40.42;93747.28;4875532;29;7466;-62
2023/04/23 00:11:34;;;;;;;;;;;;;;;26.94;40.20;93744.00;4881679;29;8946;-62
2023/04/23 00:14:03;;;;;;;;;;;;;;;26.92;40.13;93743.78;4882071;29;7241;-62
2023/04/23 00:16:30;;;;;;;;;;;;;;;26.93;40.11;93742.50;4890348;29;7294;-62
2023/04/23 00:19:05;;;;;;;;;;;;;;;26.93;40.31;93742.50;4882505;29;8736;-62
2023/04/23 00:21:40;;;;;;;;;;;;;;;26.92;40.03;93730.00;4882212;29;7102;-63
2023/04/23 00:24:35;;;;;;;;;;;;;;;26.95;40.12;93734.44;4882449;29;9081;-62
2023/04/23 00:27:02;;;;;;;;;;;;;;;26.94;40.52;93737.72;4881055;29;7265;-62
2023/04/23 00:29:45;;;;;;;;;;;;;;;26.94;40.34;93737.72;4882036;29;9069;-62
2023/04/23 00:32:41;;;;;;;;;;;;;;;26.94;40.04;93732.22;4922635;28;9152;-62
2023/04/23 00:35:17;;;;;;;;;;;;;;;26.92;39.73;93740.28;4957424;28;7262;-62
2023/04/23 00:37:43;;;;;;;;;;;;;;;26.93;40.19;93742.50;4954511;28;7251;-62
2023/04/23 00:40:19;;;;;;;;;;;;;;;26.92;39.74;93740.28;4982455;28;8871;-62
2023/04/23 00:43:08;;;;;;;;;;;;;;;26.95;40.05;93741.97;5020170;28;7012;-62
2023/04/23 00:45:49;;;;;;;;;;;;;;;26.96;39.82;93738.69;5030563;28;7037;-62
2023/04/23 00:48:17;;;;;;;;;;;;;;;26.94;39.95;93743.25;5030969;28;7505;-62
2023/04/23 00:50:43;;;;;;;;;;;;;;;26.96;40.01;93744.19;5013457;28;8594;-62
2023/04/23 00:53:09;;;;;;;;;;;;;;;26.95;40.63;93737.19;5030149;28;7035;-62
2023/04/23 00:55:35;;;;;;;;;;;;;;;26.93;40.08;93748.03;5030706;28;8957;-62
2023/04/23 00:58:05;;;;;;;;;;;;;;;26.95;40.01;93744.75;5029348;28;7051;-62
2023/04/23 01:00:40;;;;;;;;;;;;;;;26.94;40.07;93752.28;5030826;28;8886;-62
2023/04/23 01:03:07;;;;;;;;;;;;;;;26.94;39.94;93754.28;5030342;28;7047;-62
2023/04/23 01:05:33;;;;;;;;;;;;;;;26.95;40.30;93759.25;5016963;28;7035;-62
2023/04/23 01:08:02;;;;;;;;;;;;;;;26.91;39.99;93758.84;5025974;28;7029;-62
2023/04/23 01:10:31;;;;;;;;;;;;;;;26.92;40.36;93752.78;5010429;28;8704;-62
2023/04/23 01:13:00;;;;;;;;;;;;;;;26.92;40.69;93757.59;5031776;28;9363;-62
2023/04/23 01:15:25;;;;;;;;;;;;;;;26.90;40.13;93752.59;5035822;28;7336;-62
2023/04/23 01:17:52;;;;;;;;;;;;;;;26.89;40.27;93750.38;5030345;28;7496;-62
2023/04/23 01:20:18;;;;;;;;;;;;;;;26.92;40.38;93763.09;5031949;28;9044;-62
2023/04/23 01:22:44;;;;;;;;;;;;;;;26.89;40.17;93770.44;5048603;28;9315;-62
2023/04/23 01:25:10;;;;;;;;;;;;;;;26.87;40.45;93773.00;5030763;28;7210;-63
2023/04/23 01:27:37;;;;;;;;;;;;;;;26.88;40.36;93768.22;5034354;28;9025;-63
2023/04/23 01:30:04;;;;;;;;;;;;;;;26.90;40.25;93771.91;5051465;28;7054;-62
2023/04/23 01:32:32;;;;;;;;;;;;;;;26.87;40.24;93773.00;5051253;28;7728;-63
2023/04/23 01:34:59;;;;;;;;;;;;;;;26.85;40.32;93774.78;5038632;28;9307;-63
2023/04/23 01:37:25;;;;;;;;;;;;;;;26.86;40.41;93785.28;5030473;28;7508;-62
2023/04/23 01:39:52;;;;;;;;;;;;;;;26.87;40.29;93784.03;5037947;28;9499;-62
2023/04/23 01:42:19;;;;;;;;;;;;;;;26.83;39.77;93785.63;5047878;28;9436;-62
2023/04/23 01:44:45;;;;;;;;;;;;;;;26.80;40.06;93779.16;5059643;28;7149;-62
2023/04/23 01:47:15;;;;;;;;;;;;;;;26.79;40.26;93783.19;5023748;28;7614;-63
2023/04/23 01:49:50;;;;;;;;;;;;;;;26.82;40.70;93786.88;5046408;28;9049;-62
2023/04/23 01:52:19;;;;;;;;;;;;;;;26.82;40.48;93787.63;5032816;28;8744;-62
2023/04/23 01:54:49;;;;;;;;;;;;;;;26.85;40.40;93791.34;5017750;28;9245;-63
2023/04/23 01:57:25;;;;;;;;;;;;;;;26.85;40.09;93797.63;5056215;28;7112;-62
2023/04/23 02:00:03;;;;;;;;;;;;;;;26.81;40.17;93796.44;5036512;28;8729;-62
2023/04/23 02:02:47;;;;;;;;;;;;;;;26.81;40.48;93785.41;5036560;28;8737;-63
2023/04/23 02:05:20;;;;;;;;;;;;;;;26.83;40.64;93791.13;5037194;28;9195;-62
2023/04/23 02:07:51;;;;;;;;;;;;;;;26.79;40.42;93782.44;5069603;28;7353;-63
2023/04/23 02:10:17;;;;;;;;;;;;;;;26.83;40.92;93788.38;5068985;28;8811;-63
2023/04/23 02:12:44;;;;;;;;;;;;;;;26.83;40.08;93788.38;5052240;28;9043;-63
2023/04/23 02:15:12;;;;;;;;;;;;;;;26.80;40.25;93781.16;5034810;28;8315;-62
2023/04/23 02:17:39;;;;;;;;;;;;;;;26.82;40.58;93786.88;5030759;28;7010;-62
2023/04/23 02:20:39;;;;;;;;;;;;;;;26.81;40.27;93793.69;5027755;28;7092;-63
2023/04/23 02:23:22;;;;;;;;;;;;;;;26.80;40.08;93781.16;4975925;28;9382;-62
2023/04/23 02:26:08;;;;;;;;;;;;;;;26.82;40.58;93786.88;4959489;28;9057;-62
2023/04/23 02:28:35;;;;;;;;;;;;;;;26.81;40.34;93790.94;4967109;28;7358;-62
2023/04/23 02:31:02;;;;;;;;;;;;;;;26.83;40.14;93791.13;4955768;28;9088;-62
2023/04/23 02:33:31;;;;;;;;;;;;;;;26.82;40.79;93784.13;4955244;28;9504;-63
2023/04/23 02:35:57;;;;;;;;;;;;;;;26.83;40.45;93785.63;4959402;28;7046;-63
2023/04/23 02:38:25;;;;;;;;;;;;;;;26.83;40.30;93789.13;4957736;28;7029;-63
2023/04/23 02:40:55;;;;;;;;;;;;;;;26.82;40.07;93784.13;4956879;28;9024;-62
2023/04/23 02:43:26;;;;;;;;;;;;;;;26.80;40.02;93783.91;4960131;28;7559;-63
2023/04/23 02:46:07;;;;;;;;;;;;;;;26.82;40.22;93776.59;4975379;28;9006;-63
2023/04/23 02:49:06;;;;;;;;;;;;;;;26.80;40.04;93778.41;4976001;28;7024;-63
2023/04/23 02:51:45;;;;;;;;;;;;;;;26.80;40.19;93784.66;4956626;28;7207;-63
2023/04/23 02:55:04;;;;;;;;;;;;;;;26.79;40.06;93780.44;4956882;28;8947;-63
2023/04/23 02:57:43;;;;;;;;;;;;;;;26.79;40.87;93782.44;4883810;29;8038;-63
2023/04/23 03:00:12;;;;;;;;;;;;;;;26.77;40.36;93774.69;4932191;28;9042;-63
2023/04/23 03:03:09;;;;;;;;;;;;;;;26.78;40.70;93780.94;4956038;28;7494;-62
2023/04/23 03:05:50;;;;;;;;;;;;;;;26.77;40.45;93779.50;4899315;29;8987;-63
2023/04/23 03:08:25;;;;;;;;;;;;;;;26.77;40.11;93774.69;4882742;29;7250;-63
2023/04/23 03:11:02;;;;;;;;;;;;;;;26.77;40.42;93771.22;4899152;29;7236;-62
2023/04/23 03:13:28;;;;;;;;;;;;;;;26.76;40.10;93767.69;4899076;29;7712;-63
2023/04/23 03:16:13;;;;;;;;;;;;;;;26.75;40.43;93771.00;4898350;29;7034;-62
2023/04/23 03:18:55;;;;;;;;;;;;;;;26.76;40.47;93772.47;4898516;29;9112;-63
2023/04/23 03:21:33;;;;;;;;;;;;;;;26.77;40.53;93769.16;4898916;29;7711;-62
2023/04/23 03:24:00;;;;;;;;;;;;;;;26.76;40.39;93758.69;4898770;29;9272;-63
2023/04/23 03:26:27;;;;;;;;;;;;;;;26.77;40.84;93765.69;4897323;29;9051;-63
2023/04/23 03:28:54;;;;;;;;;;;;;;;26.76;40.39;93770.47;4913272;29;8829;-62
2023/04/23 03:31:39;;;;;;;;;;;;;;;26.76;40.31;93764.19;4917543;29;7287;-62
2023/04/23 03:34:19;;;;;;;;;;;;;;;26.76;40.62;93756.66;4951969;28;7198;-63
2023/04/23 03:36:47;;;;;;;;;;;;;;;26.75;40.46;93759.97;4939111;28;7292;-63
2023/04/23 03:39:27;;;;;;;;;;;;;;;26.74;40.38;93750.94;4955398;28;7284;-63
2023/04/23 03:42:04;;;;;;;;;;;;;;;26.74;40.39;93753.69;4981614;28;8940;-62
2023/04/23 03:44:40;;;;;;;;;;;;;;;26.74;40.17;93752.94;5043064;28;7279;-63
2023/04/23 03:47:16;;;;;;;;;;;;;;;26.75;40.31;93755.16;5050342;28;7502;-62
2023/04/23 03:49:42;;;;;;;;;;;;;;;26.74;40.61;93755.72;5016240;28;9043;-62
2023/04/23 03:52:19;;;;;;;;;;;;;;;26.75;40.78;93766.19;5016079;28;8706;-63
2023/04/23 03:54:52;;;;;;;;;;;;;;;26.75;40.32;93765.47;5048046;28;8974;-63
2023/04/23 03:57:20;;;;;;;;;;;;;;;26.74;40.36;93767.50;5036784;28;7274;-62
2023/04/23 03:59:55;;;;;;;;;;;;;;;26.74;40.13;93767.50;5024455;28;7271;-62
2023/04/23 04:02:23;;;;;;;;;;;;;;;26.71;40.53;93762.25;5033736;28;7310;-62
2023/04/23 04:04:57;;;;;;;;;;;;;;;26.73;40.59;93757.72;5068143;28;8696;-62
2023/04/23 04:07:42;;;;;;;;;;;;;;;26.75;40.37;93759.97;5034000;28;8733;-62
2023/04/23 04:10:35;;;;;;;;;;;;;;;26.74;40.13;93745.41;5067433;28;9101;-63
2023/04/23 04:13:12;;;;;;;;;;;;;;;26.75;40.59;93751.69;4997212;28;7128;-63
2023/04/23 04:15:38;;;;;;;;;;;;;;;26.74;40.91;93744.69;4975166;28;7063;-63
2023/04/23 04:18:11;;;;;;;;;;;;;;;26.72;40.94;93749.97;4977388;28;7213;-63
2023/04/23 04:20:38;;;;;;;;;;;;;;;26.71;40.96;93753.97;4973939;28;8981;-63
2023/04/23 04:23:06;;;;;;;;;;;;;;;26.73;40.34;93751.47;4972737;28;7468;-63
2023/04/23 04:25:32;;;;;;;;;;;;;;;26.73;40.95;93743.22;4956386;28;7056;-62
2023/04/23 04:27:58;;;;;;;;;;;;;;;26.73;40.25;93737.69;4963716;28;9164;-62
2023/04/23 04:30:25;;;;;;;;;;;;;;;26.68;40.79;93730.22;4990373;28;7239;-62
2023/04/23 04:32:54;;;;;;;;;;;;;;;26.74;40.23;93747.44;4991165;28;7025;-62
2023/04/23 04:35:19;;;;;;;;;;;;;;;26.73;40.31;93741.16;4990916;28;7297;-62
2023/04/23 04:37:46;;;;;;;;;;;;;;;26.72;40.45;93741.69;4989697;28;7353;-63
2023/04/23 04:40:15;;;;;;;;;;;;;;;26.75;40.63;93743.41;4991855;28;8706;-63
2023/04/23 04:42:47;;;;;;;;;;;;;;;26.73;41.07;93737.69;4991808;28;7338;-63
2023/04/23 04:45:25;;;;;;;;;;;;;;;26.72;40.06;93739.66;4993077;28;7071;-62
2023/04/23 04:48:00;;;;;;;;;;;;;;;26.71;40.39;93740.19;4976256;28;7027;-62
2023/04/23 04:50:37;;;;;;;;;;;;;;;26.73;40.65;93740.44;5035301;28;7651;-63
2023/04/23 04:53:17;;;;;;;;;;;;;;;26.73;40.24;93732.16;5033695;28;8276;-63
2023/04/23 04:55:50;;;;;;;;;;;;;;;26.72;40.78;93736.91;5033475;28;9243;-63
2023/04/23 04:58:25;;;;;;;;;;;;;;;26.72;40.70;93733.41;5033400;28;9399;-62
2023/04/23 05:00:51;;;;;;;;;;;;;;;26.71;40.50;93734.66;5014816;28;7115;-63
2023/04/23 05:03:32;;;;;;;;;;;;;;;26.72;40.96;93736.91;5014364;28;7246;-62
2023/04/23 05:06:30;;;;;;;;;;;;;;;26.71;40.92;93742.94;5013512;28;7305;-63
2023/04/23 05:08:55;;;;;;;;;;;;;;;26.70;40.54;93741.47;5055827;28;7148;-62
2023/04/23 05:11:34;;;;;;;;;;;;;;;26.69;40.80;93735.22;5069823;28;7096;-63
2023/04/23 05:14:03;;;;;;;;;;;;;;;26.69;40.19;93731.69;5050652;28;7300;-63
2023/04/23 05:16:59;;;;;;;;;;;;;;;26.70;40.78;93735.97;5065940;28;8813;-63
2023/04/23 05:19:27;;;;;;;;;;;;;;;26.69;40.58;93734.47;4973146;28;7351;-63
2023/04/23 05:22:02;;;;;;;;;;;;;;;26.69;40.89;93737.22;4973057;28;9060;-62
2023/04/23 05:24:28;;;;;;;;;;;;;;;26.69;40.96;93737.97;4957163;28;7123;-63
2023/04/23 05:27:03;;;;;;;;;;;;;;;26.70;41.01;93742.22;4970811;28;7560;-63
2023/04/23 05:29:29;;;;;;;;;;;;;;;26.69;40.95;93746.25;4956622;28;7249;-63
2023/04/23 05:32:05;;;;;;;;;;;;;;;26.72;40.34;93747.19;4972220;28;8946;-63
2023/04/23 05:34:35;;;;;;;;;;;;;;;26.70;40.89;93747.00;4969705;28;7381;-63
2023/04/23 05:37:05;;;;;;;;;;;;;;;26.69;40.80;93739.97;4971143;28;9070;-63
2023/04/23 05:39:31;;;;;;;;;;;;;;;26.70;41.19;93750.50;4972022;28;8709;-63
2023/04/23 05:41:57;;;;;;;;;;;;;;;26.73;40.75;93743.22;4963714;28;9925;-63
2023/04/23 05:44:23;;;;;;;;;;;;;;;26.71;41.34;93748.47;4967616;28;7022;-63
2023/04/23 05:46:49;;;;;;;;;;;;;;;26.70;41.29;93747.00;4965799;28;7088;-62
2023/04/23 05:49:24;;;;;;;;;;;;;;;26.69;40.80;93745.50;4972195;28;9070;-63
2023/04/23 05:52:30;;;;;;;;;;;;;;;26.69;40.80;93748.25;4952051;29;8804;-62
2023/04/23 05:54:58;;;;;;;;;;;;;;;26.68;40.45;93744.03;4933188;28;7038;-62
2023/04/23 05:57:57;;;;;;;;;;;;;;;26.68;40.72;93744.78;4995435;28;9234;-62
2023/04/23 06:00:35;;;;;;;;;;;;;;;26.65;40.45;93747.84;4994992;28;9353;-62
2023/04/23 06:03:10;;;;;;;;;;;;;;;26.68;40.97;93746.78;5007573;28;8703;-63
2023/04/23 06:05:42;;;;;;;;;;;;;;;26.67;46.51;93753.56;5012352;28;8693;-62
2023/04/23 06:08:21;;;;;;;;;;;;;;;26.68;44.50;93747.53;4995307;28;9053;-62
2023/04/23 06:10:48;;;;;;;;;;;;;;;26.71;43.30;93753.97;4986423;28;9263;-62
2023/04/23 06:13:48;;;;;;;;;;;;;;;26.69;42.15;93746.25;5009090;28;7281;-63
2023/04/23 06:16:30;;;;;;;;;;;;;;;26.70;41.68;93739.47;4914101;29;8619;-63
2023/04/23 06:19:35;;;;;;;;;;;;;;;26.67;41.92;93751.56;4929756;29;7015;-62
2023/04/23 06:22:10;;;;;;;;;;;;;;;26.65;41.59;93743.06;4877436;29;7624;-62
2023/04/23 06:24:43;;;;;;;;;;;;;;;26.63;41.63;93745.63;4884454;29;7319;-62
2023/04/23 06:27:12;;;;;;;;;;;;;;;26.66;41.59;93741.81;4880335;29;8922;-62
2023/04/23 06:29:55;;;;;;;;;;;;;;;26.65;42.03;93739.56;4879767;29;7129;-63
2023/04/23 06:32:31;;;;;;;;;;;;;;;26.63;42.16;93739.34;4895640;29;7023;-62
2023/04/23 06:35:12;;;;;;;;;;;;;;;26.64;41.84;93738.09;4904915;29;9019;-62
2023/04/23 06:37:39;;;;;;;;;;;;;;;26.64;41.81;93735.34;4893953;29;7228;-62
2023/04/23 06:40:15;;;;;;;;;;;;;;;26.66;41.93;93735.53;4877868;29;7040;-62
2023/04/23 06:42:42;;;;;;;;;;;;;;;26.65;41.91;93729.28;4893568;29;9022;-62
2023/04/23 06:45:25;;;;;;;;;;;;;;;26.67;41.30;93723.22;4895712;29;7238;-62
2023/04/23 06:48:00;;;;;;;;;;;;;;;26.67;42.75;93729.47;4896991;29;7259;-62
2023/04/23 06:50:39;;;;;;;;;;;;;;;26.69;42.23;93720.66;4895916;29;7375;-62
2023/04/23 06:53:05;;;;;;;;;;;;;;;26.69;41.04;93712.41;4974839;28;7297;-61
2023/04/23 06:55:33;;;;;;;;;;;;;;;26.71;43.22;93715.34;5006217;28;7189;-62
2023/04/23 06:58:29;;;;;;;;;;;;;;;26.71;42.33;93705.06;5032587;28;7853;-62
2023/04/23 07:01:17;;;;;;;;;;;;;;;26.70;41.49;93702.84;5030917;28;8918;-62
2023/04/23 07:03:48;;;;;;;;;;;;;;;26.70;43.03;93691.81;5022967;28;8962;-62
2023/04/23 07:06:23;;;;;;;;;;;;;;;26.71;42.05;93694.03;5035168;28;7357;-62
2023/04/23 07:08:50;;;;;;;;;;;;;;;26.70;42.60;93686.31;5033683;28;7238;-62
2023/04/23 07:11:19;;;;;;;;;;;;;;;26.72;42.88;93689.25;5031103;28;7267;-63
2023/04/23 07:13:46;;;;;;;;;;;;;;;26.71;42.30;93676.72;5019848;28;9041;-62
2023/04/23 07:16:15;;;;;;;;;;;;;;;26.74;42.66;93676.44;5029604;28;9029;-62
2023/04/23 07:18:41;;;;;;;;;;;;;;;26.77;42.35;93680.16;5032783;28;9512;-61
2023/04/23 07:21:07;;;;;;;;;;;;;;;26.80;41.76;93673.56;5035752;28;7240;-62
2023/04/23 07:23:41;;;;;;;;;;;;;;;26.79;41.96;93669.34;5036007;28;7426;-62
2023/04/23 07:26:41;;;;;;;;;;;;;;;26.78;42.23;93663.06;5033384;28;9469;-62
2023/04/23 07:29:19;;;;;;;;;;;;;;;26.78;42.64;93660.31;4972243;28;9137;-62
2023/04/23 07:32:26;;;;;;;;;;;;;;;26.78;41.79;93659.56;4950863;28;7051;-62
2023/04/23 07:35:07;;;;;;;;;;;;;;;26.73;42.20;93657.69;4973245;28;7044;-63
2023/04/23 07:37:52;;;;;;;;;;;;;;;26.73;42.21;93657.69;4956827;28;7201;-62
2023/04/23 07:40:24;;;;;;;;;;;;;;;26.70;42.54;93655.97;4971852;28;9021;-62
2023/04/23 07:43:01;;;;;;;;;;;;;;;26.69;41.99;93652.44;4963698;28;9511;-62
2023/04/23 07:45:30;;;;;;;;;;;;;;;26.69;41.77;93651.69;4953877;28;8791;-62
2023/04/23 07:48:32;;;;;;;;;;;;;;;26.70;42.35;93647.69;4966025;28;7083;-62
2023/04/23 07:51:00;;;;;;;;;;;;;;;26.69;42.29;93651.69;4966562;28;8915;-62
2023/04/23 07:54:00;;;;;;;;;;;;;;;26.70;42.66;93647.69;4953228;28;8974;-63
2023/04/23 07:56:41;;;;;;;;;;;;;;;26.72;43.23;93650.66;4919140;29;7243;-62
2023/04/23 07:59:19;;;;;;;;;;;;;;;26.72;42.66;93645.13;4909836;29;7121;-62
2023/04/23 08:01:50;;;;;;;;;;;;;;;26.72;42.73;93634.09;4897032;29;7515;-62
2023/04/23 08:04:22;;;;;;;;;;;;;;;26.69;41.97;93635.91;4919809;28;7281;-62
2023/04/23 08:06:59;;;;;;;;;;;;;;;26.72;42.62;93636.84;4986469;28;7678;-62
2023/04/23 08:09:27;;;;;;;;;;;;;;;26.74;42.42;93621.28;4974011;28;9248;-62
2023/04/23 08:12:06;;;;;;;;;;;;;;;26.72;42.72;93617.53;4973283;28;7081;-62
2023/04/23 08:14:46;;;;;;;;;;;;;;;26.76;42.33;93620.72;4963558;28;7307;-61
2023/04/23 08:17:42;;;;;;;;;;;;;;;26.78;42.42;93621.69;4985734;28;7271;-63
2023/04/23 08:20:43;;;;;;;;;;;;;;;26.76;43.03;93612.44;4901593;29;7272;-64
2023/04/23 08:23:12;;;;;;;;;;;;;;;26.76;42.48;93612.44;4916534;29;7034;-63
2023/04/23 08:25:46;;;;;;;;;;;;;;;26.74;43.06;93603.97;4914416;29;9020;-64
2023/04/23 08:28:17;;;;;;;;;;;;;;;26.77;43.37;93605.66;4897765;29;7294;-64
2023/04/23 08:30:59;;;;;;;;;;;;;;;26.78;42.98;93607.13;4897869;29;7360;-63
2023/04/23 08:33:35;;;;;;;;;;;;;;;26.78;42.19;93605.13;4964184;28;8960;-63
2023/04/23 08:36:01;;;;;;;;;;;;;;;26.76;42.57;93601.41;4969931;28;7035;-63
2023/04/23 08:38:37;;;;;;;;;;;;;;;26.77;42.90;93613.94;4962135;28;7210;-63
2023/04/23 08:41:14;;;;;;;;;;;;;;;26.77;42.58;93606.38;4957730;28;7047;-63
2023/04/23 08:43:46;;;;;;;;;;;;;;;26.79;42.50;93606.63;4960878;28;7066;-63
2023/04/23 08:46:29;;;;;;;;;;;;;;;26.80;42.65;93607.34;4954498;28;7232;-62
2023/04/23 08:48:59;;;;;;;;;;;;;;;26.78;42.89;93598.84;4962881;28;7019;-62
2023/04/23 08:51:45;;;;;;;;;;;;;;;26.80;42.61;93604.59;4967367;28;9109;-64
2023/04/23 08:54:25;;;;;;;;;;;;;;;26.79;42.40;93601.09;4954950;28;7053;-63
2023/04/23 08:57:01;;;;;;;;;;;;;;;26.82;42.50;93604.78;5006888;28;7342;-63
2023/04/23 08:59:59;;;;;;;;;;;;;;;26.85;42.90;93606.47;5030178;28;7295;-63
2023/04/23 09:02:28;;;;;;;;;;;;;;;26.85;42.77;93609.22;5001225;28;9341;-63
2023/04/23 09:05:08;;;;;;;;;;;;;;;26.86;43.07;93605.22;4992079;28;7345;-63
2023/04/23 09:07:47;;;;;;;;;;;;;;;26.86;42.60;93603.16;4987946;28;7040;-62
2023/04/23 09:10:16;;;;;;;;;;;;;;;26.83;42.58;93601.50;5007582;28;7508;-63
2023/04/23 09:12:52;;;;;;;;;;;;;;;26.86;42.84;93602.44;5008305;28;7509;-63
2023/04/23 09:15:21;;;;;;;;;;;;;;;26.88;43.04;93605.41;4991449;28;7032;-62
2023/04/23 09:17:48;;;;;;;;;;;;;;;26.88;42.49;93603.38;5010663;28;9479;-63
2023/04/23 09:20:42;;;;;;;;;;;;;;;26.88;42.77;93597.84;5000313;28;7270;-63
2023/04/23 09:23:16;;;;;;;;;;;;;;;26.88;42.57;93597.13;5008617;28;7238;-62
2023/04/23 09:26:06;;;;;;;;;;;;;;;26.89;43.03;93596.59;5009706;28;7377;-63
2023/04/23 09:28:41;;;;;;;;;;;;;;;26.90;42.34;93598.06;5012579;28;8240;-63
2023/04/23 09:31:46;;;;;;;;;;;;;;;26.94;42.70;93597.72;4994056;28;7056;-63
2023/04/23 09:34:54;;;;;;;;;;;;;;;26.95;42.66;93590.91;4915945;29;9483;-63
2023/04/23 09:37:31;;;;;;;;;;;;;;;26.96;42.27;93592.41;4862689;29;7104;-63
2023/04/23 09:40:03;;;;;;;;;;;;;;;26.97;42.42;93587.63;4862994;29;9057;-63
2023/04/23 09:42:40;;;;;;;;;;;;;;;26.96;42.22;93575.84;4903420;29;7231;-63
2023/04/23 09:45:25;;;;;;;;;;;;;;;26.96;42.49;93558.56;4896997;29;7118;-63
2023/04/23 09:48:09;;;;;;;;;;;;;;;26.99;42.44;93563.72;4881054;29;7358;-63
2023/04/23 09:50:38;;;;;;;;;;;;;;;26.99;42.70;93557.47;4880787;29;8665;-63
2023/04/23 09:53:11;;;;;;;;;;;;;;;26.97;42.41;93552.47;4911802;29;7263;-63
2023/04/23 09:56:10;;;;;;;;;;;;;;;26.99;42.42;93552.69;4912513;29;7018;-63
2023/04/23 09:58:45;;;;;;;;;;;;;;;27.00;42.21;93545.91;4862750;29;8915;-63
2023/04/23 10:01:30;;;;;;;;;;;;;;;27.01;42.52;93549.41;4877934;29;7480;-63
2023/04/23 10:04:13;;;;;;;;;;;;;;;26.99;42.20;93536.13;4877963;29;8848;-63
2023/04/23 10:06:39;;;;;;;;;;;;;;;27.02;42.48;93543.34;4877886;29;7079;-63
2023/04/23 10:09:07;;;;;;;;;;;;;;;27.03;42.32;93539.31;4929722;29;7418;-63
2023/04/23 10:11:36;;;;;;;;;;;;;;;27.03;42.06;93539.31;4952298;29;9729;-63
2023/04/23 10:14:07;;;;;;;;;;;;;;;27.04;41.90;93543.53;4967746;28;7037;-63
2023/04/23 10:16:57;;;;;;;;;;;;;;;27.05;42.06;93536.00;4957111;28;7065;-64
2023/04/23 10:19:33;;;;;;;;;;;;;;;27.05;41.73;93536.75;4976517;28;7585;-64
2023/04/23 10:22:06;;;;;;;;;;;;;;;27.05;42.68;93533.97;4960292;28;7050;-63
2023/04/23 10:24:45;;;;;;;;;;;;;;;27.04;42.10;93532.50;4959607;28;7226;-64
2023/04/23 10:27:15;;;;;;;;;;;;;;;27.05;42.30;93527.72;4958916;28;8235;-63
2023/04/23 10:29:46;;;;;;;;;;;;;;;27.05;42.12;93527.72;4957997;28;8790;-63
2023/04/23 10:32:14;;;;;;;;;;;;;;;27.05;41.97;93517.41;4974481;28;8097;-63
2023/04/23 10:34:44;;;;;;;;;;;;;;;27.06;41.73;93515.38;5019037;28;7263;-63
2023/04/23 10:37:10;;;;;;;;;;;;;;;27.06;42.04;93510.59;5054124;28;7025;-63
2023/04/23 10:39:43;;;;;;;;;;;;;;;27.04;42.49;93506.91;5038849;28;8212;-63
2023/04/23 10:42:12;;;;;;;;;;;;;;;27.02;41.93;93507.44;5036246;28;7274;-63
2023/04/23 10:44:42;;;;;;;;;;;;;;;27.03;41.87;93503.44;5041200;28;7248;-63
2023/04/23 10:47:15;;;;;;;;;;;;;;;27.03;41.85;93499.91;5054647;28;7044;-63
2023/04/23 10:49:43;;;;;;;;;;;;;;;27.05;42.21;93503.63;5054129;28;7042;-63
2023/04/23 10:52:14;;;;;;;;;;;;;;;27.05;41.85;93489.81;5049115;28;9119;-63
2023/04/23 10:54:49;;;;;;;;;;;;;;;27.04;41.71;93493.84;5054437;28;7136;-63
2023/04/23 10:57:15;;;;;;;;;;;;;;;27.06;41.48;93493.31;5054860;28;9010;-63
2023/04/23 10:59:55;;;;;;;;;;;;;;;27.08;41.97;93499.75;5054019;28;7020;-63
2023/04/23 11:02:23;;;;;;;;;;;;;;;27.10;41.48;93502.00;5050261;28;7281;-63
2023/04/23 11:04:57;;;;;;;;;;;;;;;27.04;41.57;93482.81;5067515;28;9141;-63
2023/04/23 11:07:32;;;;;;;;;;;;;;;27.10;41.74;93490.97;5033971;28;8243;-63
2023/04/23 11:10:11;;;;;;;;;;;;;;;27.09;41.74;93490.22;5036107;28;7019;-63
2023/04/23 11:12:39;;;;;;;;;;;;;;;27.11;41.72;93486.91;5066071;28;9267;-63
2023/04/23 11:15:17;;;;;;;;;;;;;;;27.10;41.18;93488.91;5040942;28;9007;-63
2023/04/23 11:17:46;;;;;;;;;;;;;;;27.09;41.64;93487.44;5051000;28;8699;-63
2023/04/23 11:20:13;;;;;;;;;;;;;;;27.09;41.90;93479.16;5035097;28;7245;-63
2023/04/23 11:23:06;;;;;;;;;;;;;;;27.11;41.47;93484.88;5066496;28;8902;-64
2023/04/23 11:25:34;;;;;;;;;;;;;;;27.11;41.58;93484.88;4994362;28;7138;-63
2023/04/23 11:28:11;;;;;;;;;;;;;;;27.13;41.78;93476.81;4993441;28;7108;-63
2023/04/23 11:30:39;;;;;;;;;;;;;;;27.13;41.29;93481.56;4993121;28;7270;-63
2023/04/23 11:33:12;;;;;;;;;;;;;;;27.14;41.55;93475.53;4962063;28;9682;-63
2023/04/23 11:35:40;;;;;;;;;;;;;;;27.16;41.46;93467.44;4965978;28;8749;-63
2023/04/23 11:38:15;;;;;;;;;;;;;;;27.17;40.97;93463.38;4992502;28;7039;-63
2023/04/23 11:40:45;;;;;;;;;;;;;;;27.19;41.82;93462.84;4992622;28;8695;-63
2023/04/23 11:43:18;;;;;;;;;;;;;;;27.19;41.14;93462.84;4993703;28;7256;-63
2023/04/23 11:45:45;;;;;;;;;;;;;;;27.19;41.71;93466.34;4989847;28;6875;-63
2023/04/23 11:48:11;;;;;;;;;;;;;;;27.20;41.17;93467.09;4957566;28;8306;-63
2023/04/23 11:50:40;;;;;;;;;;;;;;;27.20;41.38;93456.78;4973233;28;7362;-63
2023/04/23 11:53:10;;;;;;;;;;;;;;;27.22;41.31;93459.00;4958794;28;8221;-63
2023/04/23 11:55:37;;;;;;;;;;;;;;;27.23;40.87;93450.16;5008404;28;9592;-63
2023/04/23 11:58:06;;;;;;;;;;;;;;;27.23;40.96;93443.91;5008546;28;9069;-63
2023/04/23 12:00:34;;;;;;;;;;;;;;;27.24;41.29;93445.38;4992377;28;8959;-63
2023/04/23 12:03:03;;;;;;;;;;;;;;;27.25;41.30;93453.13;5038713;28;9178;-63
2023/04/23 12:05:43;;;;;;;;;;;;;;;27.26;41.60;93431.78;5050487;28;7016;-63
2023/04/23 12:08:18;;;;;;;;;;;;;;;27.25;41.20;93436.56;5034394;28;7278;-63
2023/04/23 12:10:59;;;;;;;;;;;;;;;27.26;41.62;93434.53;5067358;28;9595;-63
2023/04/23 12:13:32;;;;;;;;;;;;;;;27.25;41.15;93439.31;5034675;28;7240;-63
2023/04/23 12:16:01;;;;;;;;;;;;;;;27.26;41.36;93435.28;5034011;28;9205;-63
2023/04/23 12:18:31;;;;;;;;;;;;;;;27.27;41.14;93434.00;5034260;28;8001;-63
2023/04/23 12:21:12;;;;;;;;;;;;;;;27.27;41.23;93427.75;5050469;28;7245;-63
2023/04/23 12:23:43;;;;;;;;;;;;;;;27.26;41.45;93421.47;5032559;28;7252;-63
2023/04/23 12:26:19;;;;;;;;;;;;;;;27.29;41.37;93422.41;5032830;28;7022;-63
2023/04/23 12:28:50;;;;;;;;;;;;;;;27.29;41.14;93414.88;5032790;28;7102;-63
2023/04/23 12:31:29;;;;;;;;;;;;;;;27.31;41.22;93408.78;5048048;28;8706;-63
2023/04/23 12:34:06;;;;;;;;;;;;;;;27.33;41.70;93404.22;5050273;28;7063;-63
2023/04/23 12:36:35;;;;;;;;;;;;;;;27.34;41.48;93399.44;5045309;28;7309;-63
2023/04/23 12:39:22;;;;;;;;;;;;;;;27.36;41.41;93392.09;5056809;28;8993;-63
2023/04/23 12:41:53;;;;;;;;;;;;;;;27.39;41.39;93395.78;5032621;28;9309;-63
2023/04/23 12:44:20;;;;;;;;;;;;;;;27.39;40.98;93391.00;5032002;28;9366;-64
2023/04/23 12:47:04;;;;;;;;;;;;;;;27.40;41.43;93389.00;5032265;28;7030;-63
2023/04/23 12:49:44;;;;;;;;;;;;;;;27.38;41.16;93386.75;5048847;28;7246;-63
2023/04/23 12:52:19;;;;;;;;;;;;;;;27.38;41.28;93395.03;5049697;28;7283;-63
2023/04/23 12:54:56;;;;;;;;;;;;;;;27.43;41.89;93393.41;5033013;28;6974;-63
2023/04/23 12:57:23;;;;;;;;;;;;;;;27.44;41.09;93397.66;5033514;28;7028;-64
2023/04/23 12:59:55;;;;;;;;;;;;;;;27.44;41.02;93392.88;5034020;28;9122;-63
2023/04/23 13:02:31;;;;;;;;;;;;;;;27.41;41.12;93393.22;5049440;28;8035;-63
2023/04/23 13:05:07;;;;;;;;;;;;;;;27.45;40.85;93380.53;5032640;28;8726;-63
2023/04/23 13:07:39;;;;;;;;;;;;;;;27.42;41.24;93386.41;5046483;28;9097;-64
2023/04/23 13:10:22;;;;;;;;;;;;;;;27.45;41.12;93388.81;5030832;28;8993;-63
2023/04/23 13:12:48;;;;;;;;;;;;;;;27.45;41.13;93390.81;5030376;28;7279;-63
2023/04/23 13:15:15;;;;;;;;;;;;;;;27.41;40.91;93391.19;5065527;28;7664;-63
2023/04/23 13:17:52;;;;;;;;;;;;;;;27.38;40.84;93400.56;5033107;28;7299;-63
2023/04/23 13:20:25;;;;;;;;;;;;;;;27.36;41.12;93391.38;5045831;28;8747;-63
2023/04/23 13:22:51;;;;;;;;;;;;;;;27.33;41.00;93392.41;5030183;28;8978;-63
2023/04/23 13:25:28;;;;;;;;;;;;;;;27.33;41.10;93390.41;5013646;28;7250;-63
2023/04/23 13:28:01;;;;;;;;;;;;;;;27.31;40.98;93375.66;5030047;28;7260;-63
2023/04/23 13:30:41;;;;;;;;;;;;;;;27.30;40.74;93368.66;5028824;28;9012;-63
2023/04/23 13:33:11;;;;;;;;;;;;;;;27.25;41.05;93359.25;5032458;28;9250;-63
2023/04/23 13:35:39;;;;;;;;;;;;;;;27.28;40.65;93366.44;5030280;28;7325;-63
2023/04/23 13:38:10;;;;;;;;;;;;;;;27.31;41.04;93370.16;5028138;28;7304;-64